sensor_id;sensor_type;location;lat;lon;timestamp;P1;durP1;ratioP1;P2;durP2;ratioP2
8683;SDS011;4379;59.744;18.206;2023-12-28T00:02:19;1.97;;;1.33;;
8683;SDS011;4379;59.744;18.206;2023-12-28T00:04:46;1.03;;;1.03;;
8683;SDS011;4379;59.744;18.206;2023-12-28T00:07:13;1.37;;;1.27;;
8683;SDS011;4379;59.744;18.206;2023-12-28T00:09:40;4.27;;;1.50;;
8683;SDS011;4379;59.744;18.206;2023-12-28T00:12:08;2.53;;;1.47;;
8683;SDS011;4379;59.744;18.206;2023-12-28T00:14:35;2.30;;;1.40;;
8683;SDS011;4379;59.744;18.206;2023-12-28T00:17:02;1.40;;;1.30;;
8683;SDS011;4379;59.744;18.206;2023-12-28T00:19:29;2.10;;;1.63;;
8683;SDS011;4379;59.744;18.206;2023-12-28T00:21:56;3.37;;;1.30;;
8683;SDS011;4379;59.744;18.206;2023-12-28T00:24:23;2.83;;;1.53;;
8683;SDS011;4379;59.744;18.206;2023-12-28T00:26:50;1.40;;;1.30;;
8683;SDS011;4379;59.744;18.206;2023-12-28T00:29:17;3.63;;;1.40;;
8683;SDS011;4379;59.744;18.206;2023-12-28T00:31:44;2.97;;;1.70;;
8683;SDS011;4379;59.744;18.206;2023-12-28T00:34:11;2.50;;;1.60;;
8683;SDS011;4379;59.744;18.206;2023-12-28T00:36:38;3.17;;;1.27;;
8683;SDS011;4379;59.744;18.206;2023-12-28T00:39:05;2.83;;;1.33;;
8683;SDS011;4379;59.744;18.206;2023-12-28T00:41:32;2.83;;;1.40;;
8683;SDS011;4379;59.744;18.206;2023-12-28T00:43:59;1.40;;;1.30;;
8683;SDS011;4379;59.744;18.206;2023-12-28T00:46:28;1.73;;;1.20;;
8683;SDS011;4379;59.744;18.206;2023-12-28T00:48:55;1.60;;;1.27;;
8683;SDS011;4379;59.744;18.206;2023-12-28T00:51:22;2.03;;;1.20;;
8683;SDS011;4379;59.744;18.206;2023-12-28T00:53:49;3.50;;;1.30;;
8683;SDS011;4379;59.744;18.206;2023-12-28T00:56:16;1.53;;;1.30;;
8683;SDS011;4379;59.744;18.206;2023-12-28T00:58:43;1.47;;;1.10;;
8683;SDS011;4379;59.744;18.206;2023-12-28T01:01:10;2.80;;;1.03;;
8683;SDS011;4379;59.744;18.206;2023-12-28T01:03:38;2.33;;;0.97;;
8683;SDS011;4379;59.744;18.206;2023-12-28T01:06:05;1.40;;;1.30;;
8683;SDS011;4379;59.744;18.206;2023-12-28T01:08:33;2.47;;;1.20;;
8683;SDS011;4379;59.744;18.206;2023-12-28T01:11:01;2.67;;;1.00;;
8683;SDS011;4379;59.744;18.206;2023-12-28T01:13:28;1.43;;;1.20;;
8683;SDS011;4379;59.744;18.206;2023-12-28T01:15:57;2.43;;;1.13;;
8683;SDS011;4379;59.744;18.206;2023-12-28T01:18:25;1.33;;;1.23;;
8683;SDS011;4379;59.744;18.206;2023-12-28T01:20:52;3.70;;;1.43;;
8683;SDS011;4379;59.744;18.206;2023-12-28T01:23:19;2.30;;;1.30;;
8683;SDS011;4379;59.744;18.206;2023-12-28T01:25:46;3.43;;;1.20;;
8683;SDS011;4379;59.744;18.206;2023-12-28T01:28:13;1.40;;;1.30;;
8683;SDS011;4379;59.744;18.206;2023-12-28T01:30:40;2.07;;;1.10;;
8683;SDS011;4379;59.744;18.206;2023-12-28T01:33:08;0.80;;;0.80;;
8683;SDS011;4379;59.744;18.206;2023-12-28T01:35:35;1.50;;;1.40;;
8683;SDS011;4379;59.744;18.206;2023-12-28T01:38:01;2.53;;;1.20;;
8683;SDS011;4379;59.744;18.206;2023-12-28T01:40:29;2.00;;;1.00;;
8683;SDS011;4379;59.744;18.206;2023-12-28T01:42:56;1.30;;;1.10;;
8683;SDS011;4379;59.744;18.206;2023-12-28T01:45:23;2.97;;;1.20;;
8683;SDS011;4379;59.744;18.206;2023-12-28T01:47:50;2.43;;;1.00;;
8683;SDS011;4379;59.744;18.206;2023-12-28T01:50:20;1.40;;;1.30;;
8683;SDS011;4379;59.744;18.206;2023-12-28T01:52:48;4.80;;;1.20;;
8683;SDS011;4379;59.744;18.206;2023-12-28T01:55:16;1.10;;;1.00;;
8683;SDS011;4379;59.744;18.206;2023-12-28T01:57:43;2.30;;;1.30;;
8683;SDS011;4379;59.744;18.206;2023-12-28T02:00:11;1.33;;;1.00;;
8683;SDS011;4379;59.744;18.206;2023-12-28T02:02:39;1.00;;;0.80;;
8683;SDS011;4379;59.744;18.206;2023-12-28T02:05:08;1.30;;;1.00;;
8683;SDS011;4379;59.744;18.206;2023-12-28T02:07:38;2.10;;;1.03;;
8683;SDS011;4379;59.744;18.206;2023-12-28T02:10:06;2.13;;;1.00;;
8683;SDS011;4379;59.744;18.206;2023-12-28T02:12:33;1.30;;;1.10;;
8683;SDS011;4379;59.744;18.206;2023-12-28T02:15:01;0.90;;;0.90;;
8683;SDS011;4379;59.744;18.206;2023-12-28T02:17:30;2.17;;;1.00;;
8683;SDS011;4379;59.744;18.206;2023-12-28T02:20:02;1.33;;;1.20;;
8683;SDS011;4379;59.744;18.206;2023-12-28T02:22:33;2.20;;;0.93;;
8683;SDS011;4379;59.744;18.206;2023-12-28T02:25:04;2.20;;;1.20;;
8683;SDS011;4379;59.744;18.206;2023-12-28T02:27:36;3.03;;;1.50;;
8683;SDS011;4379;59.744;18.206;2023-12-28T02:30:08;1.20;;;0.87;;
8683;SDS011;4379;59.744;18.206;2023-12-28T02:32:44;1.50;;;1.10;;
8683;SDS011;4379;59.744;18.206;2023-12-28T02:38:08;2.33;;;1.00;;
8683;SDS011;4379;59.744;18.206;2023-12-28T02:40:36;1.97;;;1.07;;
8683;SDS011;4379;59.744;18.206;2023-12-28T02:43:06;3.33;;;1.03;;
8683;SDS011;4379;59.744;18.206;2023-12-28T02:45:34;2.60;;;1.10;;
8683;SDS011;4379;59.744;18.206;2023-12-28T02:48:01;1.53;;;1.10;;
8683;SDS011;4379;59.744;18.206;2023-12-28T02:50:29;1.30;;;1.10;;
8683;SDS011;4379;59.744;18.206;2023-12-28T02:52:56;1.07;;;0.73;;
8683;SDS011;4379;59.744;18.206;2023-12-28T02:55:24;2.27;;;1.30;;
8683;SDS011;4379;59.744;18.206;2023-12-28T02:57:52;3.20;;;1.10;;
8683;SDS011;4379;59.744;18.206;2023-12-28T03:00:21;0.70;;;0.70;;
8683;SDS011;4379;59.744;18.206;2023-12-28T03:02:49;0.90;;;0.90;;
8683;SDS011;4379;59.744;18.206;2023-12-28T03:05:16;3.47;;;1.30;;
8683;SDS011;4379;59.744;18.206;2023-12-28T03:07:43;1.83;;;1.10;;
8683;SDS011;4379;59.744;18.206;2023-12-28T03:10:10;1.30;;;1.00;;
8683;SDS011;4379;59.744;18.206;2023-12-28T03:12:40;0.80;;;0.80;;
8683;SDS011;4379;59.744;18.206;2023-12-28T03:15:07;2.50;;;0.93;;
8683;SDS011;4379;59.744;18.206;2023-12-28T03:17:35;1.20;;;1.07;;
8683;SDS011;4379;59.744;18.206;2023-12-28T03:20:04;1.30;;;0.90;;
8683;SDS011;4379;59.744;18.206;2023-12-28T03:22:32;1.30;;;1.13;;
8683;SDS011;4379;59.744;18.206;2023-12-28T03:24:59;1.50;;;1.40;;
8683;SDS011;4379;59.744;18.206;2023-12-28T03:27:26;2.97;;;1.07;;
8683;SDS011;4379;59.744;18.206;2023-12-28T03:29:53;1.37;;;1.03;;
8683;SDS011;4379;59.744;18.206;2023-12-28T03:32:20;1.30;;;1.20;;
8683;SDS011;4379;59.744;18.206;2023-12-28T03:34:48;0.97;;;0.90;;
8683;SDS011;4379;59.744;18.206;2023-12-28T03:37:15;1.30;;;1.20;;
8683;SDS011;4379;59.744;18.206;2023-12-28T03:39:42;1.50;;;1.20;;
8683;SDS011;4379;59.744;18.206;2023-12-28T03:42:09;1.70;;;0.80;;
8683;SDS011;4379;59.744;18.206;2023-12-28T03:44:36;2.27;;;1.30;;
8683;SDS011;4379;59.744;18.206;2023-12-28T03:47:03;1.43;;;1.30;;
8683;SDS011;4379;59.744;18.206;2023-12-28T03:49:30;1.00;;;0.90;;
8683;SDS011;4379;59.744;18.206;2023-12-28T03:51:57;1.37;;;1.00;;
8683;SDS011;4379;59.744;18.206;2023-12-28T03:54:24;0.73;;;0.73;;
8683;SDS011;4379;59.744;18.206;2023-12-28T03:56:51;2.17;;;0.90;;
8683;SDS011;4379;59.744;18.206;2023-12-28T03:59:20;1.20;;;0.90;;
8683;SDS011;4379;59.744;18.206;2023-12-28T04:01:47;1.03;;;0.97;;
8683;SDS011;4379;59.744;18.206;2023-12-28T04:04:14;1.43;;;0.90;;
8683;SDS011;4379;59.744;18.206;2023-12-28T04:06:41;1.20;;;1.10;;
8683;SDS011;4379;59.744;18.206;2023-12-28T04:09:13;1.83;;;1.03;;
8683;SDS011;4379;59.744;18.206;2023-12-28T04:11:41;2.20;;;0.90;;
8683;SDS011;4379;59.744;18.206;2023-12-28T04:14:08;1.80;;;1.00;;
8683;SDS011;4379;59.744;18.206;2023-12-28T04:16:35;1.20;;;1.10;;
8683;SDS011;4379;59.744;18.206;2023-12-28T04:19:02;2.47;;;1.17;;
8683;SDS011;4379;59.744;18.206;2023-12-28T04:21:29;2.20;;;1.10;;
8683;SDS011;4379;59.744;18.206;2023-12-28T04:23:56;2.63;;;1.10;;
8683;SDS011;4379;59.744;18.206;2023-12-28T04:26:23;1.97;;;1.13;;
8683;SDS011;4379;59.744;18.206;2023-12-28T04:28:50;2.07;;;1.10;;
8683;SDS011;4379;59.744;18.206;2023-12-28T04:31:17;2.67;;;1.20;;
8683;SDS011;4379;59.744;18.206;2023-12-28T04:33:44;0.87;;;0.80;;
8683;SDS011;4379;59.744;18.206;2023-12-28T04:36:11;1.43;;;1.03;;
8683;SDS011;4379;59.744;18.206;2023-12-28T04:38:39;1.20;;;1.10;;
8683;SDS011;4379;59.744;18.206;2023-12-28T04:41:06;1.47;;;1.10;;
8683;SDS011;4379;59.744;18.206;2023-12-28T04:43:33;0.90;;;0.90;;
8683;SDS011;4379;59.744;18.206;2023-12-28T04:46:03;0.97;;;0.93;;
8683;SDS011;4379;59.744;18.206;2023-12-28T04:48:31;1.40;;;1.17;;
8683;SDS011;4379;59.744;18.206;2023-12-28T04:50:58;1.03;;;1.00;;
8683;SDS011;4379;59.744;18.206;2023-12-28T04:53:29;0.80;;;0.70;;
8683;SDS011;4379;59.744;18.206;2023-12-28T04:55:56;0.90;;;0.80;;
8683;SDS011;4379;59.744;18.206;2023-12-28T04:58:23;1.53;;;1.20;;
8683;SDS011;4379;59.744;18.206;2023-12-28T05:00:50;2.40;;;1.03;;
8683;SDS011;4379;59.744;18.206;2023-12-28T05:03:17;1.30;;;1.20;;
8683;SDS011;4379;59.744;18.206;2023-12-28T05:05:44;1.07;;;1.00;;
8683;SDS011;4379;59.744;18.206;2023-12-28T05:08:11;3.03;;;0.90;;
8683;SDS011;4379;59.744;18.206;2023-12-28T05:10:38;1.67;;;1.10;;
8683;SDS011;4379;59.744;18.206;2023-12-28T05:13:05;1.87;;;1.00;;
8683;SDS011;4379;59.744;18.206;2023-12-28T05:15:32;1.43;;;0.90;;
8683;SDS011;4379;59.744;18.206;2023-12-28T05:17:59;1.17;;;1.00;;
8683;SDS011;4379;59.744;18.206;2023-12-28T05:20:27;1.67;;;1.20;;
8683;SDS011;4379;59.744;18.206;2023-12-28T05:22:54;1.77;;;1.10;;
8683;SDS011;4379;59.744;18.206;2023-12-28T05:25:21;2.13;;;1.20;;
8683;SDS011;4379;59.744;18.206;2023-12-28T05:27:48;1.23;;;1.07;;
8683;SDS011;4379;59.744;18.206;2023-12-28T05:30:16;1.20;;;1.10;;
8683;SDS011;4379;59.744;18.206;2023-12-28T05:32:43;2.47;;;1.27;;
8683;SDS011;4379;59.744;18.206;2023-12-28T05:35:10;2.13;;;1.00;;
8683;SDS011;4379;59.744;18.206;2023-12-28T05:37:37;0.60;;;0.60;;
8683;SDS011;4379;59.744;18.206;2023-12-28T05:40:04;1.17;;;0.97;;
8683;SDS011;4379;59.744;18.206;2023-12-28T05:42:31;1.23;;;0.90;;
8683;SDS011;4379;59.744;18.206;2023-12-28T05:44:58;2.00;;;1.03;;
8683;SDS011;4379;59.744;18.206;2023-12-28T05:47:25;1.80;;;1.00;;
8683;SDS011;4379;59.744;18.206;2023-12-28T05:49:52;1.70;;;0.80;;
8683;SDS011;4379;59.744;18.206;2023-12-28T05:52:19;2.60;;;1.00;;
8683;SDS011;4379;59.744;18.206;2023-12-28T05:54:46;1.63;;;0.90;;
8683;SDS011;4379;59.744;18.206;2023-12-28T05:57:16;1.20;;;0.90;;
8683;SDS011;4379;59.744;18.206;2023-12-28T05:59:43;0.90;;;0.90;;
8683;SDS011;4379;59.744;18.206;2023-12-28T06:02:10;1.57;;;0.80;;
8683;SDS011;4379;59.744;18.206;2023-12-28T06:04:37;1.73;;;0.87;;
8683;SDS011;4379;59.744;18.206;2023-12-28T06:07:05;1.43;;;0.93;;
8683;SDS011;4379;59.744;18.206;2023-12-28T06:09:32;1.33;;;0.97;;
8683;SDS011;4379;59.744;18.206;2023-12-28T06:11:59;2.10;;;1.10;;
8683;SDS011;4379;59.744;18.206;2023-12-28T06:14:26;2.20;;;0.90;;
8683;SDS011;4379;59.744;18.206;2023-12-28T06:16:53;1.90;;;0.90;;
8683;SDS011;4379;59.744;18.206;2023-12-28T06:19:21;1.90;;;0.80;;
8683;SDS011;4379;59.744;18.206;2023-12-28T06:21:49;1.47;;;1.27;;
8683;SDS011;4379;59.744;18.206;2023-12-28T06:24:16;3.77;;;1.30;;
8683;SDS011;4379;59.744;18.206;2023-12-28T06:26:44;1.40;;;0.77;;
8683;SDS011;4379;59.744;18.206;2023-12-28T06:29:11;1.90;;;0.80;;
8683;SDS011;4379;59.744;18.206;2023-12-28T06:31:38;2.50;;;1.07;;
8683;SDS011;4379;59.744;18.206;2023-12-28T06:34:06;1.27;;;1.10;;
8683;SDS011;4379;59.744;18.206;2023-12-28T06:36:34;2.27;;;1.07;;
8683;SDS011;4379;59.744;18.206;2023-12-28T06:39:02;0.90;;;0.90;;
8683;SDS011;4379;59.744;18.206;2023-12-28T06:41:29;0.70;;;0.70;;
8683;SDS011;4379;59.744;18.206;2023-12-28T06:43:56;2.70;;;0.90;;
8683;SDS011;4379;59.744;18.206;2023-12-28T06:46:23;1.53;;;1.00;;
8683;SDS011;4379;59.744;18.206;2023-12-28T06:48:50;2.40;;;1.07;;
8683;SDS011;4379;59.744;18.206;2023-12-28T06:51:18;1.53;;;0.87;;
8683;SDS011;4379;59.744;18.206;2023-12-28T06:53:46;1.70;;;1.33;;
8683;SDS011;4379;59.744;18.206;2023-12-28T06:56:15;1.30;;;1.20;;
8683;SDS011;4379;59.744;18.206;2023-12-28T06:58:42;1.70;;;1.07;;
8683;SDS011;4379;59.744;18.206;2023-12-28T07:01:09;1.33;;;1.10;;
8683;SDS011;4379;59.744;18.206;2023-12-28T07:03:38;1.47;;;1.37;;
8683;SDS011;4379;59.744;18.206;2023-12-28T07:06:05;0.73;;;0.73;;
8683;SDS011;4379;59.744;18.206;2023-12-28T07:08:32;1.33;;;0.80;;
8683;SDS011;4379;59.744;18.206;2023-12-28T07:11:02;2.10;;;0.83;;
8683;SDS011;4379;59.744;18.206;2023-12-28T07:13:31;1.00;;;0.90;;
8683;SDS011;4379;59.744;18.206;2023-12-28T07:15:58;1.10;;;1.00;;
8683;SDS011;4379;59.744;18.206;2023-12-28T07:18:27;1.10;;;1.00;;
8683;SDS011;4379;59.744;18.206;2023-12-28T07:20:55;1.60;;;0.70;;
8683;SDS011;4379;59.744;18.206;2023-12-28T07:23:22;2.43;;;0.90;;
8683;SDS011;4379;59.744;18.206;2023-12-28T07:25:49;2.50;;;1.10;;
8683;SDS011;4379;59.744;18.206;2023-12-28T07:28:16;1.17;;;1.00;;
8683;SDS011;4379;59.744;18.206;2023-12-28T07:30:43;0.93;;;0.80;;
8683;SDS011;4379;59.744;18.206;2023-12-28T07:33:10;1.30;;;1.20;;
8683;SDS011;4379;59.744;18.206;2023-12-28T07:35:38;1.90;;;1.20;;
8683;SDS011;4379;59.744;18.206;2023-12-28T07:38:05;2.00;;;1.10;;
8683;SDS011;4379;59.744;18.206;2023-12-28T07:40:32;2.20;;;1.10;;
8683;SDS011;4379;59.744;18.206;2023-12-28T07:42:59;3.37;;;1.47;;
8683;SDS011;4379;59.744;18.206;2023-12-28T07:45:27;1.87;;;1.00;;
8683;SDS011;4379;59.744;18.206;2023-12-28T07:47:55;1.17;;;1.10;;
8683;SDS011;4379;59.744;18.206;2023-12-28T07:50:22;2.00;;;1.10;;
8683;SDS011;4379;59.744;18.206;2023-12-28T07:52:50;2.30;;;1.30;;
8683;SDS011;4379;59.744;18.206;2023-12-28T07:55:17;2.43;;;1.27;;
8683;SDS011;4379;59.744;18.206;2023-12-28T07:57:44;1.63;;;1.03;;
8683;SDS011;4379;59.744;18.206;2023-12-28T08:00:12;1.67;;;1.13;;
8683;SDS011;4379;59.744;18.206;2023-12-28T08:02:39;2.47;;;1.00;;
8683;SDS011;4379;59.744;18.206;2023-12-28T08:05:06;2.13;;;1.40;;
8683;SDS011;4379;59.744;18.206;2023-12-28T08:07:33;2.60;;;1.20;;
8683;SDS011;4379;59.744;18.206;2023-12-28T08:10:00;3.53;;;1.27;;
8683;SDS011;4379;59.744;18.206;2023-12-28T08:12:28;3.43;;;1.43;;
8683;SDS011;4379;59.744;18.206;2023-12-28T08:14:55;1.97;;;1.10;;
8683;SDS011;4379;59.744;18.206;2023-12-28T08:17:22;2.73;;;0.93;;
8683;SDS011;4379;59.744;18.206;2023-12-28T08:19:50;1.10;;;1.00;;
8683;SDS011;4379;59.744;18.206;2023-12-28T08:22:17;1.27;;;1.13;;
8683;SDS011;4379;59.744;18.206;2023-12-28T08:24:45;1.23;;;0.90;;
8683;SDS011;4379;59.744;18.206;2023-12-28T08:27:12;2.50;;;1.13;;
8683;SDS011;4379;59.744;18.206;2023-12-28T08:29:40;2.67;;;0.93;;
8683;SDS011;4379;59.744;18.206;2023-12-28T08:32:08;2.23;;;1.13;;
8683;SDS011;4379;59.744;18.206;2023-12-28T08:34:37;2.00;;;1.00;;
8683;SDS011;4379;59.744;18.206;2023-12-28T08:37:04;1.73;;;1.30;;
8683;SDS011;4379;59.744;18.206;2023-12-28T08:39:32;2.60;;;1.10;;
8683;SDS011;4379;59.744;18.206;2023-12-28T08:41:59;3.53;;;1.33;;
8683;SDS011;4379;59.744;18.206;2023-12-28T08:44:26;1.60;;;1.20;;
8683;SDS011;4379;59.744;18.206;2023-12-28T08:46:53;2.27;;;1.30;;
8683;SDS011;4379;59.744;18.206;2023-12-28T08:49:21;2.57;;;1.20;;
8683;SDS011;4379;59.744;18.206;2023-12-28T08:51:49;3.43;;;1.47;;
8683;SDS011;4379;59.744;18.206;2023-12-28T08:54:17;1.97;;;1.17;;
8683;SDS011;4379;59.744;18.206;2023-12-28T08:56:44;1.90;;;1.10;;
8683;SDS011;4379;59.744;18.206;2023-12-28T08:59:15;2.23;;;1.20;;
8683;SDS011;4379;59.744;18.206;2023-12-28T09:01:42;3.57;;;1.30;;
8683;SDS011;4379;59.744;18.206;2023-12-28T09:04:09;1.13;;;1.03;;
8683;SDS011;4379;59.744;18.206;2023-12-28T09:06:37;4.07;;;1.10;;
8683;SDS011;4379;59.744;18.206;2023-12-28T09:09:04;3.47;;;1.33;;
8683;SDS011;4379;59.744;18.206;2023-12-28T09:11:32;2.73;;;1.20;;
8683;SDS011;4379;59.744;18.206;2023-12-28T09:13:59;2.53;;;1.23;;
8683;SDS011;4379;59.744;18.206;2023-12-28T09:16:26;1.57;;;1.13;;
8683;SDS011;4379;59.744;18.206;2023-12-28T09:18:54;1.30;;;1.00;;
8683;SDS011;4379;59.744;18.206;2023-12-28T09:21:22;3.27;;;1.40;;
8683;SDS011;4379;59.744;18.206;2023-12-28T09:23:49;4.97;;;1.60;;
8683;SDS011;4379;59.744;18.206;2023-12-28T09:26:16;1.90;;;0.90;;
8683;SDS011;4379;59.744;18.206;2023-12-28T09:28:43;4.77;;;1.40;;
8683;SDS011;4379;59.744;18.206;2023-12-28T09:31:10;2.77;;;1.13;;
8683;SDS011;4379;59.744;18.206;2023-12-28T09:33:38;2.30;;;1.30;;
8683;SDS011;4379;59.744;18.206;2023-12-28T09:36:05;1.77;;;1.10;;
8683;SDS011;4379;59.744;18.206;2023-12-28T09:38:33;1.93;;;0.97;;
8683;SDS011;4379;59.744;18.206;2023-12-28T09:41:03;1.57;;;1.00;;
8683;SDS011;4379;59.744;18.206;2023-12-28T09:43:40;3.57;;;1.43;;
8683;SDS011;4379;59.744;18.206;2023-12-28T09:46:21;3.63;;;1.37;;
8683;SDS011;4379;59.744;18.206;2023-12-28T09:48:49;1.60;;;1.20;;
8683;SDS011;4379;59.744;18.206;2023-12-28T09:51:16;2.53;;;1.27;;
8683;SDS011;4379;59.744;18.206;2023-12-28T09:53:44;4.90;;;1.40;;
8683;SDS011;4379;59.744;18.206;2023-12-28T09:56:12;3.70;;;1.43;;
8683;SDS011;4379;59.744;18.206;2023-12-28T09:58:40;1.70;;;1.00;;
8683;SDS011;4379;59.744;18.206;2023-12-28T10:01:10;1.00;;;1.00;;
8683;SDS011;4379;59.744;18.206;2023-12-28T10:03:40;1.57;;;1.03;;
8683;SDS011;4379;59.744;18.206;2023-12-28T10:06:07;2.40;;;1.07;;
8683;SDS011;4379;59.744;18.206;2023-12-28T10:08:34;3.27;;;1.30;;
8683;SDS011;4379;59.744;18.206;2023-12-28T10:11:02;2.00;;;1.13;;
8683;SDS011;4379;59.744;18.206;2023-12-28T10:13:32;1.23;;;1.13;;
8683;SDS011;4379;59.744;18.206;2023-12-28T10:16:01;1.87;;;1.10;;
8683;SDS011;4379;59.744;18.206;2023-12-28T10:18:29;2.07;;;1.20;;
8683;SDS011;4379;59.744;18.206;2023-12-28T10:20:57;1.97;;;1.20;;
8683;SDS011;4379;59.744;18.206;2023-12-28T10:23:24;2.27;;;1.10;;
8683;SDS011;4379;59.744;18.206;2023-12-28T10:25:55;2.43;;;0.90;;
8683;SDS011;4379;59.744;18.206;2023-12-28T10:28:23;2.30;;;1.00;;
8683;SDS011;4379;59.744;18.206;2023-12-28T10:30:54;1.37;;;0.80;;
8683;SDS011;4379;59.744;18.206;2023-12-28T10:33:25;1.43;;;0.97;;
8683;SDS011;4379;59.744;18.206;2023-12-28T10:35:53;4.40;;;1.30;;
8683;SDS011;4379;59.744;18.206;2023-12-28T10:38:24;3.13;;;1.30;;
8683;SDS011;4379;59.744;18.206;2023-12-28T10:40:55;0.90;;;0.90;;
8683;SDS011;4379;59.744;18.206;2023-12-28T10:43:22;1.50;;;0.93;;
8683;SDS011;4379;59.744;18.206;2023-12-28T10:45:50;2.60;;;1.13;;
8683;SDS011;4379;59.744;18.206;2023-12-28T10:48:24;0.90;;;0.90;;
8683;SDS011;4379;59.744;18.206;2023-12-28T10:50:59;3.00;;;1.30;;
8683;SDS011;4379;59.744;18.206;2023-12-28T10:53:41;2.13;;;1.33;;
8683;SDS011;4379;59.744;18.206;2023-12-28T11:01:40;1.33;;;1.10;;
8683;SDS011;4379;59.744;18.206;2023-12-28T11:04:14;4.40;;;1.20;;
8683;SDS011;4379;59.744;18.206;2023-12-28T11:06:46;1.10;;;0.83;;
8683;SDS011;4379;59.744;18.206;2023-12-28T11:09:16;3.17;;;1.13;;
8683;SDS011;4379;59.744;18.206;2023-12-28T11:11:43;1.07;;;0.97;;
8683;SDS011;4379;59.744;18.206;2023-12-28T11:14:12;1.97;;;1.30;;
8683;SDS011;4379;59.744;18.206;2023-12-28T11:16:39;1.30;;;0.90;;
8683;SDS011;4379;59.744;18.206;2023-12-28T11:19:08;1.53;;;0.80;;
8683;SDS011;4379;59.744;18.206;2023-12-28T11:21:35;3.13;;;0.90;;
8683;SDS011;4379;59.744;18.206;2023-12-28T11:24:03;2.13;;;0.90;;
8683;SDS011;4379;59.744;18.206;2023-12-28T11:26:32;0.87;;;0.80;;
8683;SDS011;4379;59.744;18.206;2023-12-28T11:29:02;1.40;;;0.60;;
8683;SDS011;4379;59.744;18.206;2023-12-28T11:31:33;0.73;;;0.50;;
8683;SDS011;4379;59.744;18.206;2023-12-28T11:34:01;0.67;;;0.67;;
8683;SDS011;4379;59.744;18.206;2023-12-28T11:39:01;0.60;;;0.60;;
8683;SDS011;4379;59.744;18.206;2023-12-28T11:41:30;0.60;;;0.60;;
8683;SDS011;4379;59.744;18.206;2023-12-28T11:44:02;0.60;;;0.60;;
8683;SDS011;4379;59.744;18.206;2023-12-28T11:46:31;1.23;;;0.70;;
8683;SDS011;4379;59.744;18.206;2023-12-28T11:49:08;0.77;;;0.40;;
8683;SDS011;4379;59.744;18.206;2023-12-28T11:51:37;0.50;;;0.47;;
8683;SDS011;4379;59.744;18.206;2023-12-28T11:54:05;0.60;;;0.60;;
8683;SDS011;4379;59.744;18.206;2023-12-28T11:56:33;1.60;;;0.60;;
8683;SDS011;4379;59.744;18.206;2023-12-28T11:59:00;0.33;;;0.33;;
8683;SDS011;4379;59.744;18.206;2023-12-28T12:01:27;0.67;;;0.23;;
8683;SDS011;4379;59.744;18.206;2023-12-28T12:03:55;0.40;;;0.40;;
8683;SDS011;4379;59.744;18.206;2023-12-28T12:06:22;0.40;;;0.40;;
8683;SDS011;4379;59.744;18.206;2023-12-28T12:08:51;0.40;;;0.40;;
8683;SDS011;4379;59.744;18.206;2023-12-28T12:11:17;0.40;;;0.30;;
8683;SDS011;4379;59.744;18.206;2023-12-28T12:13:45;0.30;;;0.30;;
8683;SDS011;4379;59.744;18.206;2023-12-28T12:16:15;0.30;;;0.30;;
8683;SDS011;4379;59.744;18.206;2023-12-28T12:18:42;0.77;;;0.30;;
8683;SDS011;4379;59.744;18.206;2023-12-28T12:21:10;0.30;;;0.30;;
8683;SDS011;4379;59.744;18.206;2023-12-28T12:23:38;0.40;;;0.40;;
8683;SDS011;4379;59.744;18.206;2023-12-28T12:26:07;0.43;;;0.43;;
8683;SDS011;4379;59.744;18.206;2023-12-28T12:28:34;0.87;;;0.30;;
8683;SDS011;4379;59.744;18.206;2023-12-28T12:31:02;0.67;;;0.30;;
8683;SDS011;4379;59.744;18.206;2023-12-28T12:33:30;0.43;;;0.40;;
8683;SDS011;4379;59.744;18.206;2023-12-28T12:35:58;0.30;;;0.30;;
8683;SDS011;4379;59.744;18.206;2023-12-28T12:38:25;0.30;;;0.30;;
8683;SDS011;4379;59.744;18.206;2023-12-28T12:40:52;1.03;;;0.30;;
8683;SDS011;4379;59.744;18.206;2023-12-28T12:43:19;0.20;;;0.20;;
8683;SDS011;4379;59.744;18.206;2023-12-28T12:45:47;0.37;;;0.37;;
8683;SDS011;4379;59.744;18.206;2023-12-28T12:48:15;0.20;;;0.20;;
8683;SDS011;4379;59.744;18.206;2023-12-28T12:50:43;0.20;;;0.20;;
8683;SDS011;4379;59.744;18.206;2023-12-28T12:53:10;0.40;;;0.40;;
8683;SDS011;4379;59.744;18.206;2023-12-28T12:55:38;0.60;;;0.20;;
8683;SDS011;4379;59.744;18.206;2023-12-28T12:58:05;0.30;;;0.30;;
8683;SDS011;4379;59.744;18.206;2023-12-28T13:00:32;0.30;;;0.30;;
8683;SDS011;4379;59.744;18.206;2023-12-28T13:03:00;0.40;;;0.40;;
8683;SDS011;4379;59.744;18.206;2023-12-28T13:05:28;0.43;;;0.33;;
8683;SDS011;4379;59.744;18.206;2023-12-28T13:07:55;0.43;;;0.30;;
8683;SDS011;4379;59.744;18.206;2023-12-28T13:10:22;0.30;;;0.30;;
8683;SDS011;4379;59.744;18.206;2023-12-28T13:12:50;0.20;;;0.20;;
8683;SDS011;4379;59.744;18.206;2023-12-28T13:15:17;0.30;;;0.30;;
8683;SDS011;4379;59.744;18.206;2023-12-28T13:17:45;1.17;;;0.30;;
8683;SDS011;4379;59.744;18.206;2023-12-28T13:20:12;0.40;;;0.40;;
8683;SDS011;4379;59.744;18.206;2023-12-28T13:22:40;0.40;;;0.40;;
8683;SDS011;4379;59.744;18.206;2023-12-28T13:25:07;0.73;;;0.47;;
8683;SDS011;4379;59.744;18.206;2023-12-28T13:27:34;0.40;;;0.40;;
8683;SDS011;4379;59.744;18.206;2023-12-28T13:30:01;0.30;;;0.30;;
8683;SDS011;4379;59.744;18.206;2023-12-28T13:32:28;0.40;;;0.40;;
8683;SDS011;4379;59.744;18.206;2023-12-28T13:34:55;0.57;;;0.50;;
8683;SDS011;4379;59.744;18.206;2023-12-28T13:37:27;0.60;;;0.60;;
8683;SDS011;4379;59.744;18.206;2023-12-28T13:39:54;1.03;;;0.60;;
8683;SDS011;4379;59.744;18.206;2023-12-28T13:42:21;0.80;;;0.60;;
8683;SDS011;4379;59.744;18.206;2023-12-28T13:44:48;0.63;;;0.60;;
8683;SDS011;4379;59.744;18.206;2023-12-28T13:47:15;0.70;;;0.57;;
8683;SDS011;4379;59.744;18.206;2023-12-28T13:49:42;0.60;;;0.60;;
8683;SDS011;4379;59.744;18.206;2023-12-28T13:52:09;1.33;;;0.70;;
8683;SDS011;4379;59.744;18.206;2023-12-28T13:54:36;0.97;;;0.50;;
8683;SDS011;4379;59.744;18.206;2023-12-28T13:57:03;0.63;;;0.60;;
8683;SDS011;4379;59.744;18.206;2023-12-28T13:59:31;1.50;;;0.90;;
8683;SDS011;4379;59.744;18.206;2023-12-28T14:01:58;1.00;;;1.00;;
8683;SDS011;4379;59.744;18.206;2023-12-28T14:04:25;1.23;;;1.13;;
8683;SDS011;4379;59.744;18.206;2023-12-28T14:06:53;0.90;;;0.90;;
8683;SDS011;4379;59.744;18.206;2023-12-28T14:09:20;1.80;;;1.00;;
8683;SDS011;4379;59.744;18.206;2023-12-28T14:11:47;0.90;;;0.90;;
8683;SDS011;4379;59.744;18.206;2023-12-28T14:14:15;0.90;;;0.90;;
8683;SDS011;4379;59.744;18.206;2023-12-28T14:16:42;2.30;;;1.20;;
8683;SDS011;4379;59.744;18.206;2023-12-28T14:19:12;1.47;;;1.20;;
8683;SDS011;4379;59.744;18.206;2023-12-28T14:21:39;1.43;;;1.33;;
8683;SDS011;4379;59.744;18.206;2023-12-28T14:24:07;2.77;;;1.47;;
8683;SDS011;4379;59.744;18.206;2023-12-28T14:26:34;4.17;;;1.53;;
8683;SDS011;4379;59.744;18.206;2023-12-28T14:29:09;3.03;;;2.10;;
8683;SDS011;4379;59.744;18.206;2023-12-28T14:31:36;4.70;;;1.90;;
8683;SDS011;4379;59.744;18.206;2023-12-28T14:34:04;2.20;;;2.00;;
8683;SDS011;4379;59.744;18.206;2023-12-28T14:36:35;2.67;;;1.73;;
8683;SDS011;4379;59.744;18.206;2023-12-28T14:39:06;4.33;;;2.17;;
8683;SDS011;4379;59.744;18.206;2023-12-28T14:41:35;1.93;;;1.60;;
8683;SDS011;4379;59.744;18.206;2023-12-28T14:44:05;3.83;;;1.73;;
8683;SDS011;4379;59.744;18.206;2023-12-28T14:46:32;4.63;;;1.97;;
8683;SDS011;4379;59.744;18.206;2023-12-28T14:48:59;2.20;;;2.00;;
8683;SDS011;4379;59.744;18.206;2023-12-28T14:51:28;3.70;;;2.13;;
8683;SDS011;4379;59.744;18.206;2023-12-28T14:53:56;4.77;;;2.23;;
8683;SDS011;4379;59.744;18.206;2023-12-28T14:56:23;4.87;;;2.63;;
8683;SDS011;4379;59.744;18.206;2023-12-28T14:58:51;4.00;;;2.90;;
8683;SDS011;4379;59.744;18.206;2023-12-28T15:01:18;3.80;;;2.83;;
8683;SDS011;4379;59.744;18.206;2023-12-28T15:03:49;5.40;;;3.10;;
8683;SDS011;4379;59.744;18.206;2023-12-28T15:06:16;3.00;;;2.70;;
8683;SDS011;4379;59.744;18.206;2023-12-28T15:08:43;3.20;;;2.90;;
8683;SDS011;4379;59.744;18.206;2023-12-28T15:11:10;3.30;;;2.70;;
8683;SDS011;4379;59.744;18.206;2023-12-28T15:13:37;3.17;;;2.80;;
8683;SDS011;4379;59.744;18.206;2023-12-28T15:16:05;2.90;;;2.70;;